Time;durP1;ratioP1;P1;durP2;ratioP2;P2;SDS_P1;SDS_P2;PMS_P1;PMS_P2;Temp;Humidity;BMP_temperature;BMP_pressure;BME280_temperature;BME280_humidity;BME280_pressure;Samples;Min_cycle;Max_cycle;Signal;HPM_P1;HPM_P2
2022/04/20 00:01:46;;;;;;;5.88;4.28;;;;;;;12.69;41.87;101408.59;5043580;28;20128;-65
2022/04/20 00:04:12;;;;;;;8.32;4.13;;;;;;;12.57;41.91;101407.56;5045172;28;20034;-64
2022/04/20 00:06:38;;;;;;;5.30;4.80;;;;;;;12.54;42.75;101409.56;5048651;28;20366;-65
2022/04/20 00:09:04;;;;;;;7.75;4.85;;;;;;;12.49;42.50;101407.16;5033870;28;20107;-65
2022/04/20 00:11:30;;;;;;;8.95;4.43;;;;;;;12.59;42.44;101418.13;5049985;28;20092;-65
2022/04/20 00:13:56;;;;;;;5.40;4.80;;;;;;;12.52;42.35;101406.13;5034460;28;20057;-65
2022/04/20 00:16:23;;;;;;;8.90;4.45;;;;;;;12.42;43.04;101406.72;5034301;28;20053;-65
2022/04/20 00:18:48;;;;;;;6.85;4.30;;;;;;;12.34;43.31;101408.97;5049828;28;20030;-65
2022/04/20 00:21:13;;;;;;;5.78;4.78;;;;;;;12.23;43.64;101406.09;5058740;28;20085;-65
2022/04/20 00:23:39;;;;;;;5.22;4.78;;;;;;;12.31;42.88;101408.31;5044676;28;20028;-65
2022/04/20 00:26:05;;;;;;;5.07;4.57;;;;;;;12.19;43.95;101412.59;5037779;28;20041;-65
2022/04/20 00:28:31;;;;;;;6.00;5.00;;;;;;;12.29;43.10;101411.06;5038989;28;20029;-65
2022/04/20 00:30:56;;;;;;;5.93;4.70;;;;;;;12.14;43.46;101409.34;5034317;28;20032;-65
2022/04/20 00:33:22;;;;;;;6.65;4.43;;;;;;;12.09;43.72;101412.31;5043597;28;20045;-65
2022/04/20 00:35:48;;;;;;;5.22;4.63;;;;;;;12.09;43.54;101419.41;5049423;28;20037;-65
2022/04/20 00:38:16;;;;;;;5.50;4.18;;;;;;;12.10;43.49;101416.66;5048678;28;20037;-65
2022/04/20 00:40:41;;;;;;;5.10;4.55;;;;;;;12.24;43.30;101413.19;5053208;28;20025;-65
2022/04/20 00:43:08;;;;;;;6.68;4.60;;;;;;;12.08;43.75;101410.56;5045454;28;20029;-65
2022/04/20 00:45:34;;;;;;;5.43;4.93;;;;;;;12.11;43.10;101412.19;5034457;28;20961;-65
2022/04/20 00:48:02;;;;;;;5.35;4.85;;;;;;;11.92;43.97;101413.31;5033634;28;20029;-65
2022/04/20 00:50:28;;;;;;;5.40;4.63;;;;;;;12.00;43.74;101413.72;5035073;28;20059;-65
2022/04/20 00:52:54;;;;;;;4.90;4.47;;;;;;;11.91;44.11;101424.03;5052613;28;20041;-64
2022/04/20 00:55:20;;;;;;;6.90;5.00;;;;;;;11.98;43.95;101418.28;5053660;28;20044;-65
2022/04/20 00:57:45;;;;;;;12.00;4.90;;;;;;;11.85;44.17;101419.94;5033795;28;20115;-65
2022/04/20 01:00:12;;;;;;;5.53;4.78;;;;;;;11.93;43.58;101424.81;5032422;28;20086;-64
2022/04/20 01:02:37;;;;;;;7.78;4.72;;;;;;;11.82;44.51;101415.63;5058716;28;20028;-65
2022/04/20 01:05:03;;;;;;;5.68;4.28;;;;;;;11.74;43.93;101403.72;5032011;28;20044;-65
2022/04/20 01:07:35;;;;;;;8.65;5.38;;;;;;;11.59;45.02;101424.13;5032654;28;20029;-65
2022/04/20 01:10:00;;;;;;;8.23;5.00;;;;;;;11.61;44.51;101416.88;5031275;28;20749;-65
2022/04/20 01:12:26;;;;;;;7.07;5.07;;;;;;;11.65;44.22;101417.53;5037000;28;20137;-64
2022/04/20 01:14:51;;;;;;;5.25;4.75;;;;;;;11.65;44.23;101414.88;5016744;28;20033;-65
2022/04/20 01:17:17;;;;;;;5.10;4.55;;;;;;;11.63;44.39;101422.13;5064649;28;20108;-64
2022/04/20 01:19:43;;;;;;;6.90;4.90;;;;;;;11.63;44.05;101425.66;5031652;28;20022;-65
2022/04/20 01:22:09;;;;;;;5.47;4.97;;;;;;;11.51;44.67;101427.22;5031367;28;20036;-64
2022/04/20 01:24:39;;;;;;;8.00;5.28;;;;;;;11.47;44.81;101423.03;5048361;28;20049;-64
2022/04/20 01:27:06;;;;;;;6.95;5.13;;;;;;;11.52;44.54;101418.25;5048138;28;20040;-65
2022/04/20 01:29:32;;;;;;;4.90;4.47;;;;;;;11.48;43.92;101423.88;5033742;28;20038;-64
2022/04/20 01:32:00;;;;;;;5.10;4.68;;;;;;;11.34;44.80;101416.66;5050094;28;20113;-65
2022/04/20 01:34:26;;;;;;;5.57;5.07;;;;;;;11.34;45.04;101432.66;5041850;28;20087;-65
2022/04/20 01:36:51;;;;;;;5.63;5.07;;;;;;;11.37;44.78;101421.81;5046472;28;20018;-65
2022/04/20 01:39:19;;;;;;;5.85;5.25;;;;;;;11.11;45.14;101429.47;5037892;28;20462;-64
2022/04/20 01:41:46;;;;;;;5.85;4.82;;;;;;;11.27;45.14;101429.47;5035370;28;20472;-65
2022/04/20 01:44:11;;;;;;;6.03;4.90;;;;;;;11.25;45.19;101430.50;5033013;28;20070;-64
2022/04/20 01:46:37;;;;;;;8.40;5.22;;;;;;;11.12;45.00;101425.03;5034798;28;20374;-64
2022/04/20 01:49:03;;;;;;;6.65;4.95;;;;;;;10.88;45.68;101422.78;5047286;28;20064;-64
2022/04/20 01:51:50;;;;;;;6.43;5.30;;;;;;;10.96;45.39;101427.66;5036364;28;20488;-65
2022/04/20 01:54:16;;;;;;;7.82;5.40;;;;;;;10.94;45.52;101426.03;5032346;28;20033;-65
2022/04/20 01:56:46;;;;;;;5.15;4.63;;;;;;;10.92;45.31;101426.13;5031748;28;20025;-64
2022/04/20 01:59:12;;;;;;;7.35;4.95;;;;;;;10.78;46.06;101426.88;5031769;28;20447;-64
2022/04/20 02:04:21;;;;;;;7.80;5.82;;;;;;;10.63;46.45;101430.38;5033707;28;20052;-64
2022/04/20 02:06:46;;;;;;;7.22;5.25;;;;;;;10.52;46.40;101419.44;5034138;28;20033;-64
2022/04/20 02:09:12;;;;;;;11.30;5.50;;;;;;;10.67;46.31;101426.59;5031046;28;20045;-64
2022/04/20 02:11:38;;;;;;;9.43;5.93;;;;;;;10.49;46.39;101419.63;5058082;28;20492;-64
2022/04/20 02:14:04;;;;;;;7.07;5.28;;;;;;;10.60;46.08;101423.41;5035532;28;20477;-64
2022/04/20 02:16:30;;;;;;;9.20;5.20;;;;;;;10.61;46.43;101424.28;5031595;28;20022;-64
2022/04/20 02:18:56;;;;;;;7.70;5.60;;;;;;;10.56;46.32;101427.19;5030584;28;20036;-64
2022/04/20 02:21:23;;;;;;;8.02;5.38;;;;;;;10.43;46.49;101424.31;5032593;28;20047;-65
2022/04/20 02:23:48;;;;;;;7.97;5.40;;;;;;;10.30;46.83;101414.44;5034019;28;20095;-64
2022/04/20 02:26:14;;;;;;;7.60;5.20;;;;;;;10.27;46.94;101419.91;5033605;28;20044;-64
2022/04/20 02:28:42;;;;;;;7.45;5.70;;;;;;;10.16;47.27;101420.44;5045381;28;20040;-64
2022/04/20 02:31:09;;;;;;;7.13;5.07;;;;;;;10.21;47.48;101415.72;5048039;28;20029;-65
2022/04/20 02:33:35;;;;;;;7.47;5.47;;;;;;;10.26;47.29;101421.66;5031309;28;20045;-65
2022/04/20 02:36:01;;;;;;;5.90;5.40;;;;;;;10.16;47.15;101415.97;5041149;28;20435;-65
2022/04/20 02:38:29;;;;;;;6.10;5.50;;;;;;;10.19;47.28;101421.13;5049670;28;20480;-65
2022/04/20 02:40:55;;;;;;;7.18;5.50;;;;;;;10.09;47.32;101417.22;5044491;28;20459;-65
2022/04/20 02:43:21;;;;;;;9.65;5.80;;;;;;;10.06;47.56;101427.13;5031685;28;20033;-65
2022/04/20 02:45:47;;;;;;;6.18;5.57;;;;;;;10.00;48.05;101421.22;5032281;28;20025;-65
2022/04/20 02:48:14;;;;;;;6.60;5.70;;;;;;;9.95;47.56;101425.06;5031800;28;20030;-66
2022/04/20 02:50:40;;;;;;;8.95;5.75;;;;;;;9.91;48.03;101431.44;5032367;28;20146;-65
2022/04/20 02:53:06;;;;;;;8.73;5.88;;;;;;;9.89;47.66;101425.38;5048584;28;20136;-65
2022/04/20 02:55:32;;;;;;;8.18;6.22;;;;;;;9.89;47.85;101431.53;5030521;28;20116;-65
2022/04/20 02:57:57;;;;;;;6.72;5.80;;;;;;;9.73;48.53;101438.56;5048136;28;20481;-65
2022/04/20 03:00:23;;;;;;;8.43;5.72;;;;;;;9.74;48.35;101434.97;5031669;28;20039;-65
2022/04/20 03:02:49;;;;;;;7.50;5.68;;;;;;;9.67;48.73;101428.22;5055022;28;20037;-65
2022/04/20 03:05:14;;;;;;;6.30;5.70;;;;;;;9.74;48.28;101441.13;5046105;28;20037;-65
2022/04/20 03:07:40;;;;;;;5.90;5.30;;;;;;;9.70;48.44;101436.91;5033334;28;20036;-65
2022/04/20 03:10:06;;;;;;;7.85;5.82;;;;;;;9.57;49.05;101438.47;5053482;28;20136;-65
2022/04/20 03:12:32;;;;;;;8.43;6.05;;;;;;;9.58;48.68;101444.63;5029853;28;20090;-65
2022/04/20 03:14:57;;;;;;;6.60;6.00;;;;;;;9.61;48.22;101441.81;5046344;28;20079;-65
2022/04/20 03:17:24;;;;;;;6.68;5.97;;;;;;;9.60;48.42;101429.50;5030046;28;20128;-65
2022/04/20 03:19:57;;;;;;;7.13;6.05;;;;;;;9.71;47.85;101433.31;5043704;28;20347;-65
2022/04/20 03:22:23;;;;;;;11.00;6.28;;;;;;;9.83;47.48;101431.00;5045090;28;20045;-65
2022/04/20 03:24:51;;;;;;;8.85;6.30;;;;;;;9.64;47.89;101439.88;5036357;28;20523;-65
2022/04/20 03:27:16;;;;;;;10.63;5.97;;;;;;;9.65;47.82;101446.91;5058354;28;20160;-65
2022/04/20 03:29:42;;;;;;;7.40;6.50;;;;;;;9.63;48.09;101446.13;5054798;28;20120;-65
2022/04/20 03:32:10;;;;;;;6.10;5.50;;;;;;;9.66;47.92;101448.63;5033440;28;20458;-66
2022/04/20 03:34:36;;;;;;;11.73;6.20;;;;;;;9.60;47.76;101454.25;5030394;28;20021;-65
2022/04/20 03:37:07;;;;;;;9.93;5.80;;;;;;;9.57;48.23;101458.84;5029702;28;20029;-65
2022/04/20 03:39:33;;;;;;;7.75;5.60;;;;;;;9.59;47.63;101457.84;5029213;28;20048;-65
2022/04/20 03:41:59;;;;;;;7.20;5.95;;;;;;;9.54;48.00;101454.53;5038074;28;20469;-65
2022/04/20 03:44:26;;;;;;;7.20;6.47;;;;;;;9.44;48.43;101454.16;5032928;28;20064;-65
2022/04/20 03:46:52;;;;;;;7.45;6.35;;;;;;;9.50;48.21;101461.81;5036972;28;20029;-65
2022/04/20 03:49:18;;;;;;;7.85;6.07;;;;;;;9.47;48.04;101459.31;5040432;28;20115;-65
2022/04/20 03:51:45;;;;;;;7.07;6.03;;;;;;;9.35;48.41;101457.22;5035362;28;20029;-65
2022/04/20 03:54:11;;;;;;;14.13;6.20;;;;;;;9.36;48.63;101458.97;5041365;28;20028;-65
2022/04/20 03:59:20;;;;;;;6.78;6.05;;;;;;;9.39;47.72;101457.97;5032287;28;20118;-65
2022/04/20 04:01:46;;;;;;;9.38;6.20;;;;;;;9.36;48.11;101460.75;5034111;28;20036;-66
2022/04/20 04:04:11;;;;;;;7.03;6.32;;;;;;;9.40;48.03;101463.19;5035677;28;20038;-65
2022/04/20 04:06:37;;;;;;;7.28;6.47;;;;;;;9.40;48.07;101464.97;5035327;28;20684;-65
2022/04/20 04:09:02;;;;;;;8.93;6.28;;;;;;;9.37;47.74;101460.66;5034693;28;20053;-65
2022/04/20 04:11:29;;;;;;;6.57;5.90;;;;;;;9.37;47.60;101468.63;5051607;28;20045;-65
2022/04/20 04:13:55;;;;;;;7.05;6.28;;;;;;;9.43;47.71;101470.13;5051343;28;20103;-65
2022/04/20 04:16:20;;;;;;;9.73;6.05;;;;;;;9.39;47.51;101465.91;5034091;28;20045;-65
2022/04/20 04:18:46;;;;;;;8.82;6.30;;;;;;;9.27;48.04;101478.00;5035037;28;20120;-65
2022/04/20 04:21:12;;;;;;;7.50;6.28;;;;;;;9.28;47.92;101475.25;5042662;28;20116;-65
2022/04/20 04:23:38;;;;;;;6.82;6.13;;;;;;;9.23;48.44;101484.34;5048837;28;20029;-65
2022/04/20 04:26:03;;;;;;;9.40;6.75;;;;;;;9.20;47.80;101481.84;5032439;28;20025;-65
2022/04/20 04:28:29;;;;;;;7.85;6.50;;;;;;;9.30;47.82;101480.50;5052339;28;20042;-65
2022/04/20 04:30:54;;;;;;;7.28;6.43;;;;;;;9.26;47.81;101482.41;5033687;28;20495;-65
2022/04/20 04:33:20;;;;;;;6.82;6.13;;;;;;;9.31;47.72;101488.38;5032610;28;20116;-65
2022/04/20 04:35:45;;;;;;;7.22;6.50;;;;;;;9.24;47.93;101496.72;5051662;28;20067;-65
2022/04/20 04:38:11;;;;;;;7.63;6.90;;;;;;;9.16;48.16;101489.09;5031864;28;20034;-65
2022/04/20 04:40:36;;;;;;;8.65;5.90;;;;;;;9.11;48.34;101491.09;5054117;28;20022;-65
2022/04/20 04:43:02;;;;;;;6.45;5.85;;;;;;;9.12;48.41;101492.84;5033906;28;20025;-65
2022/04/20 04:50:55;;;;;;;8.55;6.47;;;;;;;9.09;48.95;101504.44;5033749;28;20104;-65
2022/04/20 04:53:21;;;;;;;9.30;6.38;;;;;;;9.08;49.04;101512.47;5033175;28;20041;-65
2022/04/20 04:55:47;;;;;;;10.75;6.57;;;;;;;9.22;48.41;101512.69;5044046;28;20064;-65
2022/04/20 04:58:13;;;;;;;7.45;6.75;;;;;;;9.16;48.74;101512.97;5043001;28;20037;-65
2022/04/20 05:00:38;;;;;;;9.30;6.47;;;;;;;9.07;49.04;101510.75;5049364;28;20033;-65
2022/04/20 05:03:03;;;;;;;8.48;6.40;;;;;;;9.19;48.89;101517.28;5031890;28;20029;-65
2022/04/20 05:05:31;;;;;;;11.20;6.30;;;;;;;9.07;49.12;101511.63;5049146;28;20029;-65
2022/04/20 05:07:57;;;;;;;7.10;6.18;;;;;;;8.99;49.74;101511.09;5050611;28;20449;-65
2022/04/20 05:10:23;;;;;;;7.97;6.25;;;;;;;9.14;49.31;101514.84;5034397;28;20094;-65
2022/04/20 05:12:48;;;;;;;8.80;7.05;;;;;;;9.08;49.50;101510.66;5033336;28;20048;-65
2022/04/20 05:15:17;;;;;;;7.53;6.72;;;;;;;9.07;49.54;101508.97;5033381;28;20404;-66
2022/04/20 05:17:42;;;;;;;11.35;6.72;;;;;;;9.05;50.14;101507.31;5016186;28;20025;-65
2022/04/20 05:20:08;;;;;;;8.35;6.30;;;;;;;9.04;49.53;101509.09;5033105;28;20021;-65
2022/04/20 05:22:36;;;;;;;8.55;6.72;;;;;;;9.09;49.53;101507.09;5032978;28;20033;-65
2022/04/20 05:25:03;;;;;;;7.47;6.22;;;;;;;9.20;49.28;101506.59;5050055;28;20093;-66
2022/04/20 05:27:28;;;;;;;9.23;6.70;;;;;;;9.25;49.09;101514.34;5056272;28;20037;-65
2022/04/20 05:29:54;;;;;;;11.13;7.05;;;;;;;9.20;49.34;101511.88;5047840;28;20438;-65
2022/04/20 05:32:19;;;;;;;7.80;7.00;;;;;;;9.23;49.53;101510.88;5047809;28;20135;-65
2022/04/20 05:34:45;;;;;;;8.85;7.20;;;;;;;9.29;48.88;101518.56;5033203;28;20033;-66
2022/04/20 05:42:39;;;;;;;7.75;6.88;;;;;;;9.42;48.54;101535.66;5044210;28;20167;-65
2022/04/20 05:45:07;;;;;;;8.88;7.28;;;;;;;9.39;48.80;101533.16;5035795;28;20124;-65
2022/04/20 05:47:33;;;;;;;9.10;6.72;;;;;;;9.54;48.13;101531.56;5033279;28;20032;-65
2022/04/20 05:49:58;;;;;;;7.90;6.88;;;;;;;9.50;48.38;101537.94;5040905;28;20056;-65
2022/04/20 05:52:24;;;;;;;10.02;7.43;;;;;;;9.59;48.63;101533.97;5033584;28;20393;-65
2022/04/20 05:54:49;;;;;;;7.65;6.70;;;;;;;9.72;48.00;101528.00;5039389;28;20036;-65
2022/04/20 05:57:18;;;;;;;8.35;7.03;;;;;;;9.72;48.45;101519.19;5048018;28;20018;-65
2022/04/20 05:59:43;;;;;;;8.55;7.00;;;;;;;9.81;47.43;101524.03;5031651;28;20103;-65
2022/04/20 06:02:09;;;;;;;10.63;6.60;;;;;;;9.88;47.88;101522.81;5047226;28;20060;-65
2022/04/20 06:04:37;;;;;;;9.70;6.97;;;;;;;9.88;47.76;101522.81;5052173;28;20036;-65
2022/04/20 06:07:03;;;;;;;10.20;7.07;;;;;;;10.00;47.97;101522.22;5063005;28;20033;-65
2022/04/20 06:09:28;;;;;;;9.95;7.32;;;;;;;10.06;47.18;101523.69;5035474;28;20050;-65
2022/04/20 06:11:54;;;;;;;10.88;7.03;;;;;;;10.22;46.60;101524.63;5044729;28;20064;-65
2022/04/20 06:14:22;;;;;;;12.80;7.38;;;;;;;10.20;47.07;101520.31;5031623;28;20477;-66
2022/04/20 06:16:48;;;;;;;13.23;7.15;;;;;;;10.37;46.42;101523.03;5034348;28;20025;-65
2022/04/20 06:19:13;;;;;;;11.48;6.70;;;;;;;10.36;46.24;101520.47;5051518;28;20035;-65
2022/04/20 06:21:38;;;;;;;8.75;6.82;;;;;;;10.56;45.77;101528.25;5036518;28;20060;-65
2022/04/20 06:24:04;;;;;;;9.38;6.65;;;;;;;10.64;45.75;101533.16;5029967;28;20030;-65
2022/04/20 06:26:30;;;;;;;7.07;6.20;;;;;;;10.75;46.25;101527.28;5032569;28;20373;-65
2022/04/20 06:28:56;;;;;;;9.52;6.90;;;;;;;10.86;45.46;101527.59;5032418;28;20029;-65
2022/04/20 06:31:22;;;;;;;11.55;7.10;;;;;;;10.96;45.79;101530.59;5064735;28;20035;-65
2022/04/20 06:33:51;;;;;;;8.05;7.25;;;;;;;11.08;46.26;101537.94;5036965;28;20026;-66
2022/04/20 06:36:17;;;;;;;14.13;6.75;;;;;;;11.25;44.24;101531.69;5034155;28;20029;-65
2022/04/20 06:38:43;;;;;;;10.00;7.35;;;;;;;11.35;44.42;101543.53;5032966;28;20030;-65
2022/04/20 06:41:09;;;;;;;8.95;6.32;;;;;;;11.49;43.92;101538.31;5031201;28;20022;-65
2022/04/20 06:43:35;;;;;;;12.95;6.97;;;;;;;11.57;43.59;101536.09;5046924;28;20037;-65
2022/04/20 06:46:01;;;;;;;8.77;6.50;;;;;;;11.65;43.99;101535.66;5052667;28;20040;-65
2022/04/20 06:48:27;;;;;;;10.80;6.93;;;;;;;11.70;42.84;101530.91;5046666;28;20117;-66
2022/04/20 06:50:53;;;;;;;7.93;6.22;;;;;;;11.86;42.74;101536.28;5030651;28;20120;-65
2022/04/20 06:58:50;;;;;;;10.80;6.40;;;;;;;12.09;42.76;101539.41;5053875;28;20519;-65
2022/04/20 07:01:15;;;;;;;8.82;6.57;;;;;;;12.14;42.05;101540.00;5029979;28;20389;-65
2022/04/20 07:03:41;;;;;;;10.32;6.53;;;;;;;12.28;42.23;101535.56;5047463;28;20045;-65
2022/04/20 07:06:07;;;;;;;12.30;6.28;;;;;;;12.48;41.87;101537.06;5029208;28;20037;-65
2022/04/20 07:08:33;;;;;;;10.10;6.15;;;;;;;12.66;42.25;101544.91;5034079;28;20051;-65
2022/04/20 07:10:59;;;;;;;9.30;6.53;;;;;;;12.83;41.75;101543.88;5039417;28;20039;-65
2022/04/20 07:13:25;;;;;;;13.05;6.90;;;;;;;12.91;41.08;101538.91;5046776;28;20056;-65
2022/04/20 07:15:51;;;;;;;11.50;6.45;;;;;;;12.98;40.33;101524.25;5045316;28;20500;-65
2022/04/20 07:18:19;;;;;;;11.73;6.50;;;;;;;13.06;40.19;101535.31;5030792;28;20101;-65
2022/04/20 07:20:45;;;;;;;7.85;6.18;;;;;;;13.24;40.35;101535.13;5030694;28;20064;-65
2022/04/20 07:23:10;;;;;;;8.25;5.65;;;;;;;13.33;39.94;101535.41;5031461;28;20441;-66
2022/04/20 07:25:36;;;;;;;13.40;6.22;;;;;;;13.43;39.55;101538.34;5035827;28;20029;-65
2022/04/20 07:28:03;;;;;;;10.15;7.10;;;;;;;13.44;38.98;101539.19;5046049;28;20032;-65
2022/04/20 07:30:28;;;;;;;11.93;7.60;;;;;;;13.53;39.44;101536.81;5030862;28;20480;-65
2022/04/20 07:32:56;;;;;;;11.77;7.22;;;;;;;13.66;39.26;101541.34;5030724;28;20132;-65
2022/04/20 07:35:22;;;;;;;8.60;6.47;;;;;;;13.72;38.77;101551.66;5029748;28;20491;-66
2022/04/20 07:37:49;;;;;;;7.38;5.82;;;;;;;13.80;37.94;101541.31;5057436;28;20033;-66
2022/04/20 07:40:15;;;;;;;7.82;6.15;;;;;;;13.91;38.16;101549.47;5061243;28;20060;-65
2022/04/20 07:42:41;;;;;;;9.02;6.18;;;;;;;13.99;37.64;101535.59;5045478;28;20396;-65
2022/04/20 07:45:11;;;;;;;9.45;6.20;;;;;;;14.09;37.58;101537.56;5050511;28;20461;-66
2022/04/20 07:47:36;;;;;;;7.50;5.80;;;;;;;14.15;36.92;101548.81;5030792;28;20053;-65
2022/04/20 07:50:23;;;;;;;7.40;5.82;;;;;;;14.20;37.13;101552.88;5030384;28;20507;-65
2022/04/20 07:52:54;;;;;;;10.63;5.80;;;;;;;14.29;37.04;101557.66;5038352;28;20040;-65
2022/04/20 07:55:26;;;;;;;6.97;5.70;;;;;;;14.36;36.68;101557.22;5050751;28;20020;-65
2022/04/20 07:57:56;;;;;;;9.02;6.00;;;;;;;14.41;36.93;101557.75;5032239;28;20052;-66
2022/04/20 08:00:24;;;;;;;6.60;6.00;;;;;;;14.49;36.92;101550.91;5013485;28;20104;-66
2022/04/20 08:02:50;;;;;;;7.53;5.53;;;;;;;14.60;36.56;101552.06;5030119;28;20033;-66
2022/04/20 08:05:18;;;;;;;7.55;5.93;;;;;;;14.74;36.53;101558.16;5029399;28;20455;-65
2022/04/20 08:07:44;;;;;;;8.18;6.03;;;;;;;14.83;36.11;101550.47;5039659;28;20092;-66
2022/04/20 08:10:11;;;;;;;7.32;6.18;;;;;;;14.94;36.35;101554.09;5050093;28;20049;-66
2022/04/20 08:12:39;;;;;;;9.30;5.93;;;;;;;15.11;36.56;101557.41;5044611;28;20116;-65
2022/04/20 08:15:06;;;;;;;7.70;5.68;;;;;;;15.21;36.67;101562.00;5049299;28;20025;-65
2022/04/20 08:17:32;;;;;;;7.28;5.72;;;;;;;15.24;35.86;101560.94;5050297;28;20466;-66
2022/04/20 08:19:58;;;;;;;8.80;5.95;;;;;;;15.40;35.66;101558.84;5050314;28;20051;-66
2022/04/20 08:22:25;;;;;;;10.48;6.38;;;;;;;15.25;34.96;101524.28;5050213;28;20051;-65
2022/04/20 08:24:51;;;;;;;8.88;5.90;;;;;;;15.57;35.14;101556.78;5045075;28;20087;-66
2022/04/20 08:27:16;;;;;;;13.20;6.28;;;;;;;15.62;35.08;101549.28;5031059;28;20039;-66
2022/04/20 08:29:42;;;;;;;11.55;6.38;;;;;;;15.80;35.02;101560.50;5052712;28;20033;-66
2022/04/20 08:32:08;;;;;;;9.38;6.10;;;;;;;15.83;33.71;101554.91;5040777;28;20029;-65
2022/04/20 08:34:34;;;;;;;10.00;5.82;;;;;;;15.91;33.74;101557.88;5032430;28;20079;-65
2022/04/20 08:36:59;;;;;;;11.15;6.03;;;;;;;15.96;34.51;101553.03;5034108;28;20033;-66
2022/04/20 08:39:25;;;;;;;8.18;6.47;;;;;;;15.98;34.16;101559.13;5048685;28;20041;-67
2022/04/20 08:41:53;;;;;;;11.43;6.22;;;;;;;16.05;34.55;101548.78;5034028;28;20095;-66
2022/04/20 08:44:33;;;;;;;9.48;6.00;;;;;;;16.25;34.30;101547.31;5033629;28;20495;-66
2022/04/20 08:47:01;;;;;;;12.07;6.18;;;;;;;16.46;33.94;101555.53;5043505;28;20473;-66
2022/04/20 08:49:26;;;;;;;10.32;6.57;;;;;;;16.65;33.68;101547.78;5035166;28;20029;-66
2022/04/20 08:54:37;;;;;;;7.93;6.80;;;;;;;16.69;32.93;101548.41;5048940;28;20447;-66
2022/04/20 08:57:19;;;;;;;9.73;6.43;;;;;;;16.61;33.41;101548.13;5048881;28;20064;-66
2022/04/20 08:59:51;;;;;;;8.73;6.03;;;;;;;16.70;33.36;101545.56;5033554;28;20048;-66
2022/04/20 09:02:17;;;;;;;9.45;6.28;;;;;;;16.88;33.43;101545.16;5049890;28;20029;-66
2022/04/20 09:04:46;;;;;;;9.15;6.35;;;;;;;17.08;33.14;101538.22;5068577;28;20036;-66
2022/04/20 09:07:14;;;;;;;7.03;6.10;;;;;;;17.13;32.98;101534.19;5068647;28;20036;-66
2022/04/20 09:09:40;;;;;;;9.75;5.97;;;;;;;17.17;32.69;101545.53;5042019;28;20042;-66
2022/04/20 09:12:19;;;;;;;10.60;5.57;;;;;;;17.22;33.63;101541.50;5033566;28;20084;-66
2022/04/20 09:14:50;;;;;;;7.07;6.05;;;;;;;17.28;32.54;101536.63;5032572;28;20036;-66
2022/04/20 09:17:20;;;;;;;10.57;6.47;;;;;;;17.41;31.10;101538.22;5032612;28;20056;-66
2022/04/20 09:19:47;;;;;;;8.57;6.05;;;;;;;17.54;32.12;101538.06;5047804;28;20100;-66
2022/04/20 09:22:29;;;;;;;5.72;5.05;;;;;;;17.76;31.34;101539.81;5032571;28;20072;-66
2022/04/20 09:25:11;;;;;;;6.38;5.28;;;;;;;17.87;31.38;101533.59;5047791;28;20444;-66
2022/04/20 09:27:41;;;;;;;8.77;5.28;;;;;;;18.03;31.31;101541.25;5033117;28;20376;-66
2022/04/20 09:30:16;;;;;;;8.27;5.15;;;;;;;18.11;30.51;101541.47;5032891;28;20087;-66
2022/04/20 09:32:47;;;;;;;6.55;4.65;;;;;;;18.24;29.28;101539.47;5047913;28;20036;-66
2022/04/20 09:35:15;;;;;;;7.47;4.95;;;;;;;18.16;29.59;101531.16;5032737;28;20385;-67
2022/04/20 09:37:42;;;;;;;6.55;4.93;;;;;;;18.42;29.63;101525.41;5032109;28;20026;-68
2022/04/20 09:40:11;;;;;;;6.55;4.57;;;;;;;18.71;29.23;101523.75;5032089;28;20025;-67
2022/04/20 09:42:38;;;;;;;6.13;4.10;;;;;;;18.62;29.22;101516.47;5032692;28;20459;-67
2022/04/20 09:45:06;;;;;;;11.00;4.80;;;;;;;18.55;28.00;101518.81;5032627;28;20025;-67
2022/04/20 09:50:26;;;;;;;6.07;4.00;;;;;;;18.59;28.30;101514.03;5036194;28;20052;-67
2022/04/20 09:52:55;;;;;;;7.85;4.18;;;;;;;18.72;28.52;101522.75;5038212;28;20045;-66
2022/04/20 09:55:27;;;;;;;5.95;4.30;;;;;;;18.94;28.15;101523.59;5047548;28;20445;-67
2022/04/20 09:57:53;;;;;;;5.65;4.07;;;;;;;19.11;28.95;101514.03;5032562;28;21360;-66
2022/04/20 10:00:23;;;;;;;6.93;3.80;;;;;;;19.25;28.49;101524.47;5048065;28;20056;-67
2022/04/20 10:02:53;;;;;;;4.40;3.92;;;;;;;19.21;26.89;101510.41;5040171;28;20123;-66
2022/04/20 10:05:20;;;;;;;4.93;3.70;;;;;;;19.46;28.02;101510.88;5038989;28;20173;-67
2022/04/20 10:07:46;;;;;;;4.05;3.65;;;;;;;19.48;27.74;101506.22;5033449;28;20025;-67
2022/04/20 10:10:14;;;;;;;5.55;3.80;;;;;;;19.78;27.95;101510.69;5030664;28;20057;-67
2022/04/20 10:12:42;;;;;;;5.43;4.25;;;;;;;19.72;27.71;101503.16;5031088;28;20392;-67
2022/04/20 10:17:56;;;;;;;5.30;4.45;;;;;;;19.48;26.94;101492.72;5038553;28;20044;-67
2022/04/20 10:20:29;;;;;;;6.68;4.65;;;;;;;19.32;27.68;101498.63;5031526;28;20075;-67
2022/04/20 10:22:56;;;;;;;10.05;4.88;;;;;;;19.55;27.87;101496.56;5030172;28;20033;-67
2022/04/20 10:25:23;;;;;;;7.45;4.30;;;;;;;19.69;28.41;101490.78;5046757;28;20116;-66
2022/04/20 10:27:57;;;;;;;7.10;4.18;;;;;;;19.84;28.08;101488.53;5049963;28;20111;-66
2022/04/20 10:30:50;;;;;;;4.55;3.58;;;;;;;19.93;27.43;101490.38;5051780;28;20037;-67
2022/04/20 10:33:19;;;;;;;7.10;3.80;;;;;;;20.12;27.48;101497.63;5044842;28;20447;-67
2022/04/20 10:36:09;;;;;;;7.72;3.80;;;;;;;20.13;27.35;101484.97;5048129;28;20026;-67
2022/04/20 10:38:34;;;;;;;4.60;3.83;;;;;;;20.01;27.67;101478.03;5048942;28;20123;-66
2022/04/20 10:41:11;;;;;;;16.05;3.72;;;;;;;20.23;27.82;101482.25;5049216;28;20116;-67
2022/04/20 10:43:45;;;;;;;3.70;3.30;;;;;;;20.45;26.49;101467.59;5038556;28;20079;-67
2022/04/20 10:46:17;;;;;;;3.78;3.17;;;;;;;20.53;27.23;101471.31;5029742;28;20457;-67
2022/04/20 10:49:07;;;;;;;5.72;3.33;;;;;;;20.36;25.79;101475.56;5031249;28;20520;-67
2022/04/20 10:51:37;;;;;;;5.97;3.28;;;;;;;20.58;27.20;101487.06;5030901;28;20026;-67
2022/04/20 10:54:17;;;;;;;4.32;3.28;;;;;;;20.69;27.96;101475.22;5031078;28;20435;-67
2022/04/20 10:57:15;;;;;;;5.45;3.28;;;;;;;20.78;26.13;101474.34;5048924;28;20104;-67
2022/04/20 10:59:41;;;;;;;5.32;3.00;;;;;;;20.91;26.22;101469.44;5034225;28;20032;-67
2022/04/20 11:02:09;;;;;;;3.47;3.17;;;;;;;20.88;25.45;101464.31;5061477;28;20029;-67
2022/04/20 11:04:39;;;;;;;6.63;3.60;;;;;;;20.97;26.33;101465.28;5050838;28;20031;-67
2022/04/20 11:07:06;;;;;;;5.38;3.70;;;;;;;21.08;25.33;101465.94;5042772;28;20089;-67
2022/04/20 11:09:48;;;;;;;9.30;3.55;;;;;;;21.06;25.63;101457.16;5030508;28;20076;-67
2022/04/20 11:18:38;;;;;;;6.05;3.10;;;;;;;21.28;27.81;101452.31;5030988;28;20033;-67
2022/04/20 11:21:03;;;;;;;4.03;2.78;;;;;;;21.32;25.96;101453.69;5030796;28;20033;-67
2022/04/20 11:23:57;;;;;;;10.15;3.05;;;;;;;21.78;25.03;101449.13;5030614;28;20029;-67
2022/04/20 11:26:32;;;;;;;6.38;3.35;;;;;;;21.86;26.09;101454.63;5029705;28;20472;-67
2022/04/20 11:29:01;;;;;;;4.25;2.85;;;;;;;22.09;24.03;101446.00;5029572;28;20026;-68
2022/04/20 11:31:29;;;;;;;3.53;2.80;;;;;;;22.35;24.18;101438.78;5063471;28;20157;-67
2022/04/20 11:33:59;;;;;;;4.43;2.93;;;;;;;22.66;23.34;101433.72;5066199;28;20029;-68
2022/04/20 11:36:25;;;;;;;12.00;2.90;;;;;;;23.07;23.28;101422.22;5055124;28;20682;-67
2022/04/20 11:38:51;;;;;;;3.47;2.65;;;;;;;23.80;23.06;101419.69;5059811;28;20028;-68
2022/04/20 11:41:19;;;;;;;11.43;3.30;;;;;;;24.04;22.67;101426.13;5050899;28;20457;-67
2022/04/20 11:43:45;;;;;;;3.50;2.80;;;;;;;24.91;21.80;101420.81;5065982;28;20126;-68
2022/04/20 11:46:14;;;;;;;5.53;2.45;;;;;;;25.26;21.53;101426.81;5048239;28;20380;-68
2022/04/20 11:48:51;;;;;;;7.65;2.60;;;;;;;25.65;21.03;101421.28;5030634;28;20025;-68
2022/04/20 11:51:25;;;;;;;6.47;2.42;;;;;;;25.57;20.74;101422.19;5045895;28;20025;-68
2022/04/20 11:53:52;;;;;;;4.85;2.42;;;;;;;25.89;19.10;101420.28;5030349;28;20029;-68
2022/04/20 11:56:31;;;;;;;6.85;2.78;;;;;;;26.35;20.44;101420.16;5031177;28;20067;-68
2022/04/20 11:58:58;;;;;;;6.25;2.83;;;;;;;26.38;19.09;101411.59;5029549;28;20113;-67
2022/04/20 12:01:30;;;;;;;5.50;2.28;;;;;;;26.45;19.16;101407.09;5034599;28;20017;-65
2022/04/20 12:03:55;;;;;;;4.85;2.80;;;;;;;26.78;19.08;101406.75;5066830;28;20379;-65
2022/04/20 12:06:24;;;;;;;4.28;2.60;;;;;;;27.25;18.16;101410.06;5056190;28;20037;-65